Time;durP1;ratioP1;P1;durP2;ratioP2;P2;SDS_P1;SDS_P2;PMS_P1;PMS_P2;Temp;Humidity;BMP_temperature;BMP_pressure;BME280_temperature;BME280_humidity;BME280_pressure;Samples;Min_cycle;Max_cycle;Signal;HPM_P1;HPM_P2
2022/05/07 00:01:31;;;;;;;8.20;7.60;;;18.50;50.80;;;;;;5055925;28;20243;-42
2022/05/07 00:03:56;;;;;;;8.60;7.70;;;18.30;51.10;;;;;;5061603;28;21143;-43
2022/05/07 00:06:22;;;;;;;8.00;6.80;;;18.30;51.40;;;;;;5059651;28;20552;-43
2022/05/07 00:08:47;;;;;;;8.67;7.63;;;18.20;51.50;;;;;;5060717;28;20192;-43
2022/05/07 00:11:15;;;;;;;7.83;7.20;;;18.20;51.70;;;;;;5065557;28;20659;-43
2022/05/07 00:13:41;;;;;;;8.00;7.30;;;18.10;52.00;;;;;;5056722;28;20196;-45
2022/05/07 00:18:51;;;;;;;7.87;7.27;;;17.80;52.70;;;;;;5056822;28;20445;-43
2022/05/07 00:21:16;;;;;;;8.40;7.80;;;17.70;52.30;;;;;;5054124;28;20432;-43
2022/05/07 00:23:42;;;;;;;11.03;7.83;;;17.60;52.70;;;;;;5063030;28;21067;-42
2022/05/07 00:26:08;;;;;;;8.70;7.47;;;17.50;52.90;;;;;;5050148;28;20574;-43
2022/05/07 00:28:35;;;;;;;7.87;7.27;;;17.50;52.90;;;;;;5055753;28;20434;-42
2022/05/07 00:31:01;;;;;;;8.40;7.60;;;17.50;53.40;;;;;;5059245;28;20238;-43
2022/05/07 00:33:27;;;;;;;7.50;6.80;;;17.60;53.40;;;;;;5066131;28;20445;-42
2022/05/07 00:35:53;;;;;;;8.17;7.50;;;17.70;52.80;;;;;;5063054;28;20434;-43
2022/05/07 00:38:18;;;;;;;9.93;7.23;;;17.80;52.80;;;;;;5058546;28;20195;-43
2022/05/07 00:40:44;;;;;;;8.00;7.30;;;17.90;52.50;;;;;;5061699;28;20211;-42
2022/05/07 00:43:15;;;;;;;7.40;6.80;;;18.00;52.50;;;;;;5061695;28;20271;-43
2022/05/07 00:45:44;;;;;;;7.43;6.73;;;18.00;52.20;;;;;;5053341;28;20196;-44
2022/05/07 00:48:10;;;;;;;7.43;6.50;;;18.10;51.50;;;;;;5061684;28;20449;-43
2022/05/07 00:53:22;;;;;;;10.87;9.93;;;18.10;51.20;;;;;;5051700;28;20493;-42
2022/05/07 00:55:49;;;;;;;8.00;7.30;;;18.00;51.30;;;;;;5054500;28;20450;-42
2022/05/07 00:58:15;;;;;;;11.80;7.63;;;18.00;51.30;;;;;;5065837;28;20924;-42
2022/05/07 01:00:43;;;;;;;8.10;7.40;;;18.00;51.20;;;;;;5059202;28;20445;-42
2022/05/07 01:03:09;;;;;;;8.57;7.67;;;17.90;51.10;;;;;;5066581;28;20468;-42
2022/05/07 01:05:35;;;;;;;8.20;7.50;;;17.90;51.20;;;;;;5065173;28;20788;-43
2022/05/07 01:08:01;;;;;;;10.17;7.60;;;17.90;51.90;;;;;;5062143;28;20438;-42
2022/05/07 01:10:28;;;;;;;7.80;7.13;;;17.80;52.00;;;;;;5067536;28;20263;-42
2022/05/07 01:12:57;;;;;;;10.83;7.67;;;17.90;52.10;;;;;;5064141;28;20228;-42
2022/05/07 01:15:24;;;;;;;7.70;7.00;;;17.90;51.70;;;;;;5065818;28;20532;-42
2022/05/07 01:17:50;;;;;;;8.43;7.27;;;17.90;51.80;;;;;;5057439;28;20844;-42
2022/05/07 01:20:15;;;;;;;10.33;7.43;;;18.00;52.30;;;;;;5066289;28;20430;-43
2022/05/07 01:22:42;;;;;;;8.30;7.47;;;18.00;52.10;;;;;;5065788;28;20554;-42
2022/05/07 01:25:08;;;;;;;8.50;7.53;;;18.00;51.60;;;;;;5071858;28;20199;-43
2022/05/07 01:27:34;;;;;;;7.90;7.10;;;18.00;51.10;;;;;;5056540;28;20443;-42
2022/05/07 01:29:59;;;;;;;7.67;6.97;;;17.90;51.00;;;;;;5067160;28;20184;-43
2022/05/07 01:32:25;;;;;;;8.03;7.23;;;17.80;51.20;;;;;;5067365;28;20706;-43
2022/05/07 01:34:53;;;;;;;8.40;7.50;;;17.60;51.70;;;;;;5068569;28;20283;-42
2022/05/07 01:37:19;;;;;;;9.13;7.60;;;17.50;52.40;;;;;;5064172;28;20196;-43
2022/05/07 01:39:44;;;;;;;7.90;6.67;;;17.60;52.40;;;;;;5062186;28;20443;-43
2022/05/07 01:42:10;;;;;;;7.90;7.13;;;17.70;52.30;;;;;;5055945;28;20930;-43
2022/05/07 01:44:36;;;;;;;7.20;6.60;;;17.70;51.50;;;;;;5062372;28;20230;-42
2022/05/07 01:49:47;;;;;;;7.27;6.57;;;17.70;51.30;;;;;;5066547;28;20225;-43
2022/05/07 01:52:13;;;;;;;8.37;7.53;;;17.60;51.00;;;;;;5063440;28;20482;-42
2022/05/07 01:54:38;;;;;;;7.87;7.17;;;17.60;51.30;;;;;;5065458;28;20555;-42
2022/05/07 01:57:04;;;;;;;10.43;7.20;;;17.70;51.50;;;;;;5067815;28;20521;-43
2022/05/07 01:59:30;;;;;;;8.17;6.10;;;17.70;50.90;;;;;;5057496;28;20231;-42
2022/05/07 02:01:56;;;;;;;6.90;6.10;;;17.70;50.60;;;;;;5062944;28;21004;-42
2022/05/07 02:04:21;;;;;;;6.90;6.20;;;17.60;50.40;;;;;;5060538;28;20200;-42
2022/05/07 02:06:47;;;;;;;10.30;6.70;;;17.50;50.40;;;;;;5057598;28;20196;-42
2022/05/07 02:09:12;;;;;;;7.50;6.90;;;17.50;50.20;;;;;;5060452;28;20199;-43
2022/05/07 02:11:38;;;;;;;7.87;7.17;;;17.50;50.30;;;;;;5060085;28;20227;-42
2022/05/07 02:14:04;;;;;;;7.50;6.60;;;17.50;50.30;;;;;;5060809;28;20233;-43
2022/05/07 02:16:30;;;;;;;7.80;7.10;;;17.40;50.40;;;;;;5064848;28;20191;-43
2022/05/07 02:18:56;;;;;;;7.63;6.93;;;17.40;51.20;;;;;;5069577;28;20222;-42
2022/05/07 02:21:24;;;;;;;8.10;7.00;;;17.40;51.00;;;;;;5059218;28;20800;-42
2022/05/07 02:23:49;;;;;;;8.53;7.63;;;17.40;51.10;;;;;;5068628;28;20191;-42
2022/05/07 02:26:15;;;;;;;7.13;6.53;;;17.40;51.40;;;;;;5056984;28;20996;-42
2022/05/07 02:28:41;;;;;;;8.03;7.10;;;17.40;51.10;;;;;;5068082;28;20266;-42
2022/05/07 02:31:06;;;;;;;8.20;7.50;;;17.20;50.90;;;;;;5051738;28;20199;-42
2022/05/07 02:33:32;;;;;;;8.80;7.90;;;17.10;51.30;;;;;;5054007;28;20196;-42
2022/05/07 02:35:57;;;;;;;8.83;7.90;;;16.90;51.60;;;;;;5059380;28;20208;-42
2022/05/07 02:38:23;;;;;;;9.63;7.10;;;16.80;52.10;;;;;;5056928;28;20196;-42
2022/05/07 02:43:32;;;;;;;7.20;6.60;;;16.80;52.80;;;;;;5051958;28;20225;-42
2022/05/07 02:45:58;;;;;;;7.07;6.47;;;16.80;52.00;;;;;;5059751;28;20901;-42
2022/05/07 02:48:25;;;;;;;6.43;5.93;;;16.80;52.20;;;;;;5065760;28;20223;-43
2022/05/07 02:50:50;;;;;;;7.10;6.50;;;16.90;51.80;;;;;;5064197;28;20657;-42
2022/05/07 02:53:16;;;;;;;7.00;6.23;;;17.00;51.00;;;;;;5060645;28;20494;-42
2022/05/07 02:55:41;;;;;;;9.00;7.20;;;17.00;50.90;;;;;;5051990;28;20220;-43
2022/05/07 02:58:08;;;;;;;7.10;5.83;;;17.00;50.50;;;;;;5064228;28;20199;-42
2022/05/07 03:00:34;;;;;;;6.33;5.77;;;16.90;50.30;;;;;;5063059;28;20615;-43
2022/05/07 03:03:00;;;;;;;7.07;6.47;;;16.90;50.50;;;;;;5049109;28;20530;-42
2022/05/07 03:05:25;;;;;;;15.73;7.37;;;16.90;50.70;;;;;;5057362;28;20184;-42
2022/05/07 03:07:51;;;;;;;6.73;6.07;;;16.90;50.80;;;;;;5057672;28;20200;-43
2022/05/07 03:10:16;;;;;;;7.13;6.43;;;16.80;50.80;;;;;;5058824;28;20239;-43
2022/05/07 03:12:42;;;;;;;6.67;5.67;;;16.80;50.80;;;;;;5062119;28;20227;-44
2022/05/07 03:15:08;;;;;;;7.23;6.50;;;16.70;50.80;;;;;;5052225;28;20195;-42
2022/05/07 03:17:34;;;;;;;8.33;6.50;;;16.60;50.70;;;;;;5063096;28;20195;-42
2022/05/07 03:20:02;;;;;;;7.40;6.67;;;16.50;50.80;;;;;;5056315;28;20791;-42
2022/05/07 03:22:28;;;;;;;9.70;8.70;;;16.40;51.20;;;;;;5069231;28;20956;-42
2022/05/07 03:24:54;;;;;;;10.00;7.37;;;16.40;51.50;;;;;;5059100;28;20449;-42
2022/05/07 03:27:19;;;;;;;9.23;8.30;;;16.40;52.00;;;;;;5059011;28;20202;-42
2022/05/07 03:29:45;;;;;;;8.37;7.57;;;16.50;52.20;;;;;;5065723;28;20196;-43
2022/05/07 03:32:10;;;;;;;9.80;6.17;;;16.60;51.80;;;;;;5058310;28;20235;-43
2022/05/07 03:34:36;;;;;;;6.90;6.27;;;16.70;51.10;;;;;;5064743;28;20247;-42
2022/05/07 03:37:01;;;;;;;7.47;6.30;;;16.70;50.70;;;;;;5056321;28;20194;-42
2022/05/07 03:39:28;;;;;;;6.40;5.90;;;16.60;50.80;;;;;;5070803;28;20565;-42
2022/05/07 03:41:54;;;;;;;6.57;5.87;;;16.70;50.80;;;;;;5057165;28;20196;-43
2022/05/07 03:44:20;;;;;;;6.77;6.17;;;16.70;50.60;;;;;;5059139;28;20791;-43
2022/05/07 03:46:45;;;;;;;7.03;6.43;;;16.60;50.90;;;;;;5064310;28;20436;-42
2022/05/07 03:49:11;;;;;;;6.90;6.10;;;16.50;51.10;;;;;;5059941;28;20195;-43
2022/05/07 03:54:21;;;;;;;6.50;5.87;;;16.40;51.70;;;;;;5059312;28;20199;-43
2022/05/07 03:56:46;;;;;;;7.60;5.67;;;16.30;51.50;;;;;;5062025;28;20933;-43
2022/05/07 03:59:12;;;;;;;8.00;6.73;;;16.10;51.10;;;;;;5065269;28;20200;-42
2022/05/07 04:01:38;;;;;;;7.77;7.00;;;16.10;51.90;;;;;;5065160;28;20243;-42
2022/05/07 04:04:03;;;;;;;6.77;6.20;;;16.10;51.40;;;;;;5055787;28;20694;-43
2022/05/07 04:06:29;;;;;;;8.27;7.30;;;16.20;51.50;;;;;;5055000;28;20250;-43
2022/05/07 04:08:54;;;;;;;6.27;5.77;;;16.20;51.20;;;;;;5069108;28;20199;-42
2022/05/07 04:11:20;;;;;;;7.80;6.20;;;16.30;52.00;;;;;;5063144;28;20196;-42
2022/05/07 04:13:46;;;;;;;6.80;6.20;;;16.40;52.30;;;;;;5053000;28;20666;-43
2022/05/07 04:16:11;;;;;;;6.40;5.90;;;16.50;51.90;;;;;;5059711;28;20565;-44
2022/05/07 04:18:37;;;;;;;7.50;6.80;;;16.50;51.60;;;;;;5066682;28;20241;-42
2022/05/07 04:21:04;;;;;;;6.50;5.90;;;16.60;51.20;;;;;;5060550;28;20303;-42
2022/05/07 04:23:30;;;;;;;7.63;6.23;;;16.60;51.10;;;;;;5059134;28;20203;-43
2022/05/07 04:25:56;;;;;;;7.70;6.20;;;16.60;51.50;;;;;;5060014;28;20499;-43
2022/05/07 04:28:21;;;;;;;7.40;5.40;;;16.70;51.70;;;;;;5054552;28;20453;-42
2022/05/07 04:30:47;;;;;;;8.10;5.90;;;16.70;51.70;;;;;;5058377;28;20442;-43
2022/05/07 04:33:14;;;;;;;8.83;6.60;;;16.70;51.20;;;;;;5062395;28;20228;-43
2022/05/07 04:35:40;;;;;;;6.03;5.53;;;16.80;51.30;;;;;;5050076;28;20227;-42
2022/05/07 04:38:06;;;;;;;6.93;6.33;;;16.80;51.00;;;;;;5062400;28;20968;-44
2022/05/07 04:40:31;;;;;;;8.63;6.03;;;16.70;51.30;;;;;;5050862;28;20200;-42
2022/05/07 04:42:57;;;;;;;7.23;6.53;;;16.60;52.00;;;;;;5058081;28;20207;-41
2022/05/07 04:45:23;;;;;;;6.63;5.97;;;16.50;52.30;;;;;;5054421;28;20188;-42
2022/05/07 04:47:48;;;;;;;6.93;6.23;;;16.50;52.00;;;;;;5067599;28;20261;-42
2022/05/07 04:50:14;;;;;;;6.80;6.20;;;16.50;52.10;;;;;;5069030;28;20441;-44
2022/05/07 04:52:39;;;;;;;8.40;6.27;;;16.40;52.50;;;;;;5066341;28;20221;-44
2022/05/07 04:55:06;;;;;;;10.50;5.97;;;16.40;52.40;;;;;;5061572;28;20188;-44
2022/05/07 04:57:31;;;;;;;6.80;6.27;;;16.20;52.90;;;;;;5067468;28;20246;-45
2022/05/07 04:59:57;;;;;;;7.23;6.60;;;15.90;53.70;;;;;;5060870;28;20440;-41
2022/05/07 05:02:23;;;;;;;7.37;6.40;;;16.00;54.20;;;;;;5054235;28;20664;-41
2022/05/07 05:04:48;;;;;;;7.20;5.90;;;16.10;53.90;;;;;;5059774;28;20537;-42
2022/05/07 05:07:14;;;;;;;7.37;6.67;;;15.80;54.20;;;;;;5055727;28;20232;-42
2022/05/07 05:09:39;;;;;;;6.77;6.17;;;15.80;54.60;;;;;;5065572;28;20222;-42
2022/05/07 05:12:05;;;;;;;10.57;5.73;;;15.90;54.90;;;;;;5059569;28;20701;-42
2022/05/07 05:17:15;;;;;;;6.90;6.20;;;16.20;55.90;;;;;;5070000;28;20511;-42
2022/05/07 05:19:41;;;;;;;7.37;6.30;;;16.50;54.10;;;;;;5067677;28;20442;-42
2022/05/07 05:22:06;;;;;;;6.43;5.90;;;16.80;53.10;;;;;;5058229;28;20275;-44
2022/05/07 05:24:32;;;;;;;6.70;6.00;;;16.80;52.40;;;;;;5068934;28;20201;-43
2022/05/07 05:26:58;;;;;;;7.20;6.07;;;16.80;52.40;;;;;;5067305;28;20195;-44
2022/05/07 05:29:23;;;;;;;6.20;5.60;;;16.90;53.30;;;;;;5060645;28;20588;-43
2022/05/07 05:31:49;;;;;;;6.57;6.03;;;17.10;53.10;;;;;;5063515;28;20270;-43
2022/05/07 05:34:14;;;;;;;7.37;6.13;;;17.10;52.40;;;;;;5060494;28;20195;-43
2022/05/07 05:36:40;;;;;;;6.27;5.70;;;17.20;52.50;;;;;;5062772;28;20299;-42
2022/05/07 05:39:07;;;;;;;8.10;6.50;;;17.40;51.90;;;;;;5059104;28;20200;-42
2022/05/07 05:41:33;;;;;;;6.43;5.93;;;17.60;51.60;;;;;;5058027;28;20196;-44
2022/05/07 05:43:59;;;;;;;6.97;6.43;;;17.70;51.40;;;;;;5061680;28;20442;-42
2022/05/07 05:46:25;;;;;;;6.73;6.23;;;17.80;51.70;;;;;;5056836;28;20492;-43
2022/05/07 05:48:51;;;;;;;7.97;6.40;;;17.90;51.60;;;;;;5062124;28;20534;-42
2022/05/07 05:51:16;;;;;;;7.20;6.50;;;18.00;51.40;;;;;;5066364;28;20249;-42
2022/05/07 05:53:42;;;;;;;6.40;5.80;;;18.20;51.40;;;;;;5057659;28;20220;-44
2022/05/07 05:56:07;;;;;;;8.97;6.30;;;18.30;51.40;;;;;;5060396;28;20568;-43
2022/05/07 05:58:33;;;;;;;7.50;5.30;;;18.40;51.80;;;;;;5061436;28;20192;-44
2022/05/07 06:01:03;;;;;;;7.20;5.23;;;18.60;52.80;;;;;;5065606;28;20231;-44
2022/05/07 06:03:30;;;;;;;6.83;6.23;;;18.80;53.30;;;;;;5058322;28;20187;-43
2022/05/07 06:05:55;;;;;;;7.00;6.40;;;19.10;52.80;;;;;;5061806;28;20430;-43
2022/05/07 06:08:21;;;;;;;7.07;5.67;;;19.30;52.10;;;;;;5060658;28;20465;-43
2022/05/07 06:10:47;;;;;;;5.03;4.60;;;19.40;52.50;;;;;;5063914;28;20246;-43
2022/05/07 06:13:12;;;;;;;7.47;5.20;;;19.20;52.20;;;;;;5060311;28;20319;-45
2022/05/07 06:15:38;;;;;;;5.77;5.37;;;19.50;52.20;;;;;;5067369;28;20227;-43
2022/05/07 06:18:04;;;;;;;6.07;5.47;;;19.90;51.10;;;;;;5065082;28;20192;-44
2022/05/07 06:20:30;;;;;;;7.57;5.10;;;20.10;50.50;;;;;;5067106;28;20438;-44
2022/05/07 06:22:59;;;;;;;7.87;5.43;;;20.30;49.70;;;;;;5070159;28;20196;-43
2022/05/07 06:28:09;;;;;;;5.80;5.33;;;20.60;49.00;;;;;;5067617;28;20580;-44
2022/05/07 06:30:35;;;;;;;5.60;5.07;;;20.80;48.90;;;;;;5065031;28;20522;-45
2022/05/07 06:33:01;;;;;;;6.83;6.07;;;20.90;48.60;;;;;;5062213;28;20234;-44
2022/05/07 06:35:27;;;;;;;5.90;5.50;;;21.10;48.30;;;;;;5060662;28;20534;-43
2022/05/07 06:37:53;;;;;;;6.73;6.23;;;21.20;47.90;;;;;;5059180;28;20449;-44
2022/05/07 06:40:19;;;;;;;6.33;5.10;;;21.40;47.70;;;;;;5065567;28;20222;-44
2022/05/07 06:42:45;;;;;;;6.00;5.50;;;21.40;47.70;;;;;;5060077;28;20200;-45
2022/05/07 06:45:11;;;;;;;6.03;5.50;;;21.50;47.50;;;;;;5058862;28;20441;-47
2022/05/07 06:47:37;;;;;;;7.27;5.93;;;21.70;47.40;;;;;;5065885;28;20951;-43
2022/05/07 06:50:03;;;;;;;6.93;5.57;;;21.90;47.00;;;;;;5061198;28;20442;-44
2022/05/07 06:52:29;;;;;;;6.17;5.60;;;22.00;46.80;;;;;;5052762;28;20257;-44
2022/05/07 06:54:55;;;;;;;8.70;7.90;;;21.80;46.70;;;;;;5061739;28;20450;-43
2022/05/07 06:57:23;;;;;;;7.57;5.50;;;22.00;47.00;;;;;;5062799;28;20439;-44
2022/05/07 06:59:48;;;;;;;8.03;7.30;;;22.20;46.50;;;;;;5059138;28;20252;-46
2022/05/07 07:02:14;;;;;;;6.57;5.97;;;22.30;46.30;;;;;;5058173;28;20479;-44
2022/05/07 07:04:39;;;;;;;7.67;6.97;;;22.40;46.30;;;;;;5060317;28;20220;-44
2022/05/07 07:07:06;;;;;;;8.47;6.23;;;22.50;46.10;;;;;;5064951;28;20196;-44
2022/05/07 07:09:32;;;;;;;7.57;6.60;;;22.50;46.10;;;;;;5059065;28;20200;-44
2022/05/07 07:11:57;;;;;;;6.47;5.77;;;22.60;46.10;;;;;;5062117;28;20961;-44
2022/05/07 07:14:23;;;;;;;7.40;6.70;;;22.70;45.80;;;;;;5059387;28;20276;-42
2022/05/07 07:16:48;;;;;;;9.53;8.70;;;22.80;46.00;;;;;;5062785;28;20188;-45
2022/05/07 07:19:16;;;;;;;7.57;6.90;;;23.00;45.40;;;;;;5067288;28;20191;-44
2022/05/07 07:21:42;;;;;;;7.97;7.27;;;23.20;45.10;;;;;;5065111;28;20200;-44
2022/05/07 07:24:08;;;;;;;7.63;6.93;;;23.20;44.90;;;;;;5054898;28;20883;-43
2022/05/07 07:26:34;;;;;;;9.33;8.43;;;23.30;45.30;;;;;;5059387;28;20453;-44
2022/05/07 07:28:59;;;;;;;10.10;9.30;;;23.40;44.30;;;;;;5067075;28;20200;-44
2022/05/07 07:31:25;;;;;;;8.13;7.47;;;23.50;43.80;;;;;;5057897;28;20203;-44
2022/05/07 07:33:51;;;;;;;9.27;8.37;;;23.40;43.20;;;;;;5065078;28;20202;-44
2022/05/07 07:36:16;;;;;;;8.63;7.87;;;23.40;43.60;;;;;;5065624;28;20193;-44
2022/05/07 07:38:42;;;;;;;9.30;7.93;;;23.40;43.50;;;;;;5047789;28;20238;-44
2022/05/07 07:41:08;;;;;;;8.07;7.37;;;23.40;43.50;;;;;;5052753;28;20216;-44
2022/05/07 07:43:34;;;;;;;8.83;8.03;;;23.40;43.60;;;;;;5057937;28;20406;-44
2022/05/07 07:48:44;;;;;;;7.70;7.10;;;23.40;43.50;;;;;;5053795;28;20497;-44
2022/05/07 07:51:10;;;;;;;8.20;7.43;;;23.50;43.90;;;;;;5059439;28;20488;-43
2022/05/07 07:53:40;;;;;;;7.80;7.10;;;23.60;43.90;;;;;;5056259;28;20692;-43
2022/05/07 07:56:07;;;;;;;8.20;7.50;;;23.60;43.10;;;;;;5052865;28;20235;-43
2022/05/07 07:58:33;;;;;;;8.23;7.60;;;23.70;43.20;;;;;;5061340;28;20545;-45
2022/05/07 08:00:59;;;;;;;8.00;7.20;;;23.80;44.10;;;;;;5052598;28;20562;-44
2022/05/07 08:03:24;;;;;;;7.67;6.97;;;23.90;44.30;;;;;;5049684;28;20188;-47
2022/05/07 08:05:52;;;;;;;7.53;6.83;;;24.00;43.60;;;;;;5058523;28;20275;-46
2022/05/07 08:13:49;;;;;;;8.23;7.53;;;24.20;43.20;;;;;;5055113;28;20466;-47
2022/05/07 08:16:17;;;;;;;7.60;7.00;;;24.30;44.30;;;;;;5057598;28;20450;-48
2022/05/07 08:18:43;;;;;;;8.20;7.40;;;24.40;43.90;;;;;;5059508;28;20438;-44
2022/05/07 08:21:10;;;;;;;10.40;9.00;;;24.60;43.40;;;;;;5059509;28;20819;-45
2022/05/07 08:23:37;;;;;;;9.00;8.27;;;24.80;43.60;;;;;;5057319;28;20192;-46
2022/05/07 08:26:04;;;;;;;8.33;7.60;;;24.80;44.30;;;;;;5060757;28;20445;-44
2022/05/07 08:28:30;;;;;;;8.43;7.80;;;25.00;44.20;;;;;;5058456;28;20813;-49
2022/05/07 08:30:57;;;;;;;9.80;8.93;;;25.10;44.70;;;;;;5055525;28;20917;-48
2022/05/07 08:33:22;;;;;;;8.67;7.87;;;25.30;44.00;;;;;;5065420;28;21108;-48
2022/05/07 08:35:48;;;;;;;9.50;8.30;;;25.40;43.40;;;;;;5066180;28;20450;-48
2022/05/07 08:38:14;;;;;;;9.90;9.10;;;25.50;43.40;;;;;;5068940;28;20195;-50
2022/05/07 08:40:40;;;;;;;9.10;8.30;;;25.60;42.70;;;;;;5065185;28;20196;-44
2022/05/07 08:43:06;;;;;;;10.00;8.10;;;25.60;42.40;;;;;;5055090;28;20454;-44
2022/05/07 08:45:32;;;;;;;9.00;8.30;;;25.60;42.80;;;;;;5071705;28;20313;-45
2022/05/07 08:47:59;;;;;;;9.40;8.70;;;25.70;42.60;;;;;;5058445;28;20203;-44
2022/05/07 08:50:26;;;;;;;8.80;8.00;;;25.70;42.30;;;;;;5070449;28;20479;-48
2022/05/07 08:52:53;;;;;;;10.37;9.57;;;25.70;42.20;;;;;;5060948;28;20977;-49
2022/05/07 08:55:19;;;;;;;8.50;7.90;;;25.80;42.00;;;;;;5057376;28;20977;-48
2022/05/07 08:57:48;;;;;;;9.40;8.57;;;25.90;42.20;;;;;;5063235;28;20449;-46
2022/05/07 09:00:16;;;;;;;9.30;8.37;;;26.00;42.30;;;;;;5066218;28;20936;-48
2022/05/07 09:02:44;;;;;;;11.10;8.20;;;26.10;42.10;;;;;;5053069;28;20509;-44
2022/05/07 09:05:11;;;;;;;7.43;6.87;;;26.20;41.30;;;;;;5061576;28;20449;-48
2022/05/07 09:07:39;;;;;;;9.47;7.53;;;26.30;41.00;;;;;;5066104;28;20468;-45
2022/05/07 09:10:12;;;;;;;11.13;7.40;;;26.40;39.80;;;;;;5064062;28;20453;-44
2022/05/07 09:12:38;;;;;;;8.33;7.73;;;26.40;40.60;;;;;;5070446;28;20504;-44
2022/05/07 09:15:06;;;;;;;8.60;6.57;;;26.50;40.40;;;;;;5057472;28;20442;-47
2022/05/07 09:17:32;;;;;;;5.57;5.17;;;26.70;38.70;;;;;;5063767;28;20264;-46
2022/05/07 09:19:58;;;;;;;5.70;5.20;;;26.90;40.10;;;;;;5057774;28;20446;-49
2022/05/07 09:22:25;;;;;;;5.40;5.00;;;26.90;37.00;;;;;;5070297;28;20939;-46
2022/05/07 09:24:55;;;;;;;4.47;4.10;;;26.80;35.00;;;;;;5062279;28;20204;-45
2022/05/07 09:27:24;;;;;;;4.20;3.90;;;26.90;37.90;;;;;;5069238;28;20446;-46
2022/05/07 09:30:03;;;;;;;4.80;4.50;;;27.10;37.50;;;;;;5066616;28;20434;-47
2022/05/07 09:32:36;;;;;;;4.87;4.37;;;27.30;37.60;;;;;;5064692;28;20496;-50
2022/05/07 09:38:01;;;;;;;4.70;3.60;;;27.40;34.50;;;;;;5062640;28;20816;-46
2022/05/07 09:40:27;;;;;;;3.33;3.03;;;27.70;34.60;;;;;;5058522;28;20447;-47
2022/05/07 09:42:57;;;;;;;4.47;3.73;;;27.90;35.40;;;;;;5067564;28;20434;-49
2022/05/07 09:45:27;;;;;;;3.33;3.10;;;28.00;33.70;;;;;;5058043;28;20430;-45
2022/05/07 09:47:55;;;;;;;4.53;3.00;;;28.20;32.40;;;;;;5055142;28;20488;-45
2022/05/07 09:50:43;;;;;;;4.73;3.00;;;28.30;32.60;;;;;;5063849;28;20776;-46
2022/05/07 09:58:51;;;;;;;3.50;3.23;;;28.70;29.90;;;;;;5068958;28;20553;-46
2022/05/07 10:01:31;;;;;;;33.57;5.80;;;28.60;29.50;;;;;;5054269;28;20507;-45
2022/05/07 10:04:18;;;;;;;4.93;3.23;;;28.80;31.40;;;;;;5059684;28;20454;-48
2022/05/07 10:07:08;;;;;;;4.00;3.60;;;29.00;32.50;;;;;;5055782;28;21020;-50
2022/05/07 10:09:48;;;;;;;10.00;6.33;;;29.30;31.60;;;;;;5069728;28;20563;-45
2022/05/07 10:12:19;;;;;;;10.87;5.87;;;29.50;31.50;;;;;;5061143;28;20819;-45
2022/05/07 10:14:45;;;;;;;9.50;4.87;;;29.80;30.90;;;;;;5065013;28;20450;-45
2022/05/07 10:17:13;;;;;;;5.37;4.03;;;29.90;28.80;;;;;;5068458;28;20453;-48
2022/05/07 10:19:43;;;;;;;4.83;3.30;;;29.90;29.60;;;;;;5058003;28;20278;-45
2022/05/07 10:22:21;;;;;;;3.40;2.63;;;30.10;29.40;;;;;;5059390;28;20442;-47
2022/05/07 10:25:06;;;;;;;3.93;3.30;;;29.90;27.70;;;;;;5067890;28;20516;-45
2022/05/07 10:27:36;;;;;;;3.20;3.00;;;29.90;28.00;;;;;;5069767;28;20453;-49
2022/05/07 10:30:12;;;;;;;6.70;4.00;;;29.80;28.40;;;;;;5056931;28;20522;-49
2022/05/07 10:32:57;;;;;;;6.37;4.10;;;29.90;30.00;;;;;;5057540;28;20525;-45
2022/05/07 10:36:06;;;;;;;8.10;4.97;;;30.10;31.30;;;;;;5066380;28;20441;-46
2022/05/07 10:38:37;;;;;;;7.03;5.27;;;30.40;31.20;;;;;;5000228;28;20622;-49
2022/05/07 10:41:19;;;;;;;4.80;4.40;;;30.40;31.70;;;;;;5058572;28;20507;-47
2022/05/07 10:43:59;;;;;;;4.90;4.50;;;30.40;31.00;;;;;;5068076;28;20787;-47
2022/05/07 10:46:36;;;;;;;7.00;3.90;;;30.50;30.70;;;;;;5060803;28;20457;-48
2022/05/07 10:49:01;;;;;;;4.20;3.90;;;30.50;30.30;;;;;;5059459;28;20814;-49
2022/05/07 10:51:29;;;;;;;4.53;4.13;;;30.60;29.90;;;;;;5067728;28;20457;-45
2022/05/07 10:53:57;;;;;;;8.77;7.97;;;30.70;30.60;;;;;;5054258;28;20204;-46
2022/05/07 10:56:24;;;;;;;5.47;4.97;;;30.80;29.20;;;;;;5057277;28;20438;-46
2022/05/07 10:58:51;;;;;;;5.00;4.60;;;30.80;29.40;;;;;;5059010;28;20447;-50
2022/05/07 11:01:18;;;;;;;4.93;4.27;;;30.80;29.40;;;;;;5066196;28;21068;-47
2022/05/07 11:03:45;;;;;;;3.73;3.43;;;30.60;29.00;;;;;;5054852;28;20470;-47
2022/05/07 11:06:11;;;;;;;4.03;3.37;;;30.40;29.00;;;;;;5050239;28;20446;-48
2022/05/07 11:08:50;;;;;;;4.00;2.90;;;30.20;27.90;;;;;;5067247;28;20487;-48
2022/05/07 11:11:17;;;;;;;5.23;3.40;;;30.10;28.60;;;;;;5065300;28;20503;-50
2022/05/07 11:13:54;;;;;;;3.87;3.47;;;30.10;29.00;;;;;;5063692;28;20539;-47
2022/05/07 11:16:21;;;;;;;3.90;3.20;;;30.30;29.60;;;;;;5055603;28;20981;-49
2022/05/07 11:18:51;;;;;;;6.40;3.70;;;30.40;28.80;;;;;;5054055;28;20465;-51
2022/05/07 11:21:20;;;;;;;4.27;3.20;;;30.60;27.20;;;;;;5061024;28;20939;-49
2022/05/07 11:23:53;;;;;;;3.20;2.93;;;30.60;27.60;;;;;;5060165;28;20801;-48
2022/05/07 11:26:20;;;;;;;3.30;2.40;;;30.50;26.70;;;;;;5054165;28;20811;-49
2022/05/07 11:28:46;;;;;;;4.27;2.20;;;30.50;26.60;;;;;;5067102;28;20442;-50
2022/05/07 11:31:33;;;;;;;3.07;2.87;;;30.50;26.70;;;;;;5067402;28;20845;-50
2022/05/07 11:34:11;;;;;;;7.37;2.53;;;30.40;26.00;;;;;;5063521;28;20957;-50
2022/05/07 11:36:38;;;;;;;2.53;2.33;;;30.20;27.50;;;;;;5065247;28;20441;-48
2022/05/07 11:39:06;;;;;;;2.90;2.60;;;30.20;26.90;;;;;;5066763;28;21331;-50
2022/05/07 11:41:33;;;;;;;2.00;1.77;;;30.10;27.50;;;;;;5066494;28;20525;-47
2022/05/07 11:46:54;;;;;;;4.60;2.40;;;29.90;28.00;;;;;;5056319;28;20445;-49
2022/05/07 11:49:56;;;;;;;2.53;2.33;;;30.20;28.80;;;;;;5059400;28;20458;-48
2022/05/07 11:52:27;;;;;;;2.60;2.40;;;29.80;26.80;;;;;;5066432;28;20968;-47
2022/05/07 11:54:53;;;;;;;3.50;2.67;;;29.60;26.50;;;;;;5062064;28;20439;-50
2022/05/07 11:57:31;;;;;;;4.03;2.10;;;29.50;28.60;;;;;;5064035;28;20458;-48
2022/05/07 11:59:58;;;;;;;3.83;1.90;;;29.60;28.30;;;;;;5062735;28;20260;-50
2022/05/07 12:02:23;;;;;;;2.90;2.47;;;29.60;27.60;;;;;;5057444;28;20529;-50
2022/05/07 12:04:57;;;;;;;5.60;3.10;;;29.70;28.00;;;;;;5055628;28;20467;-49
2022/05/07 12:07:23;;;;;;;2.47;2.30;;;29.80;27.70;;;;;;5064415;28;20938;-46
2022/05/07 12:09:48;;;;;;;4.47;2.40;;;29.90;26.70;;;;;;5061977;28;20453;-49
2022/05/07 12:12:14;;;;;;;5.93;2.43;;;29.90;26.40;;;;;;5059325;28;20233;-49
2022/05/07 12:14:40;;;;;;;3.27;2.30;;;30.00;26.90;;;;;;5058596;28;20188;-50
2022/05/07 12:19:50;;;;;;;2.23;2.13;;;29.90;28.60;;;;;;5062264;28;20199;-50
2022/05/07 12:30:28;;;;;;;2.37;2.27;;;30.20;27.80;;;;;;5056374;28;20449;-51
2022/05/07 12:32:55;;;;;;;3.73;2.57;;;30.10;26.10;;;;;;5066609;28;20487;-49
2022/05/07 12:35:21;;;;;;;2.60;2.40;;;30.20;26.70;;;;;;5062928;28;20202;-46
2022/05/07 12:37:46;;;;;;;2.93;2.47;;;30.20;26.70;;;;;;5060490;28;20520;-50
2022/05/07 12:40:12;;;;;;;5.10;2.77;;;30.30;27.20;;;;;;5059393;28;20522;-47
2022/05/07 12:42:38;;;;;;;3.00;2.70;;;30.00;27.60;;;;;;5059618;28;20238;-47
2022/05/07 12:45:04;;;;;;;2.63;2.20;;;29.80;28.60;;;;;;5056661;28;20274;-52
2022/05/07 12:47:30;;;;;;;2.57;2.37;;;29.80;29.00;;;;;;5061315;28;20442;-50
2022/05/07 12:49:56;;;;;;;2.30;2.07;;;29.60;29.10;;;;;;5055615;28;20443;-50
2022/05/07 12:52:22;;;;;;;2.73;2.47;;;29.60;28.80;;;;;;5064354;28;20228;-51
2022/05/07 12:54:48;;;;;;;2.13;2.03;;;29.50;29.10;;;;;;5068464;28;20196;-46
2022/05/07 12:57:14;;;;;;;3.50;2.60;;;29.40;28.80;;;;;;5066211;28;20446;-48
2022/05/07 12:59:40;;;;;;;2.40;1.80;;;29.40;28.70;;;;;;5062048;28;20435;-50
2022/05/07 13:02:06;;;;;;;2.33;2.23;;;29.40;28.70;;;;;;5062982;28;20576;-49
2022/05/07 13:04:33;;;;;;;2.90;2.27;;;29.50;29.00;;;;;;5066454;28;21326;-50
2022/05/07 13:06:59;;;;;;;3.33;2.00;;;29.60;27.90;;;;;;5065429;28;20536;-50
2022/05/07 13:09:25;;;;;;;2.27;2.07;;;29.60;27.00;;;;;;5068971;28;20968;-51
2022/05/07 13:11:51;;;;;;;2.50;2.40;;;29.80;27.00;;;;;;5065831;28;20473;-51
2022/05/07 13:14:16;;;;;;;2.90;2.70;;;30.00;28.00;;;;;;5071702;28;20449;-48
2022/05/07 13:16:43;;;;;;;5.77;3.23;;;30.10;29.30;;;;;;5071920;28;20275;-49
2022/05/07 13:19:09;;;;;;;2.70;2.10;;;30.00;28.30;;;;;;5062301;28;20200;-49
2022/05/07 13:21:35;;;;;;;2.60;2.40;;;30.10;27.00;;;;;;5069399;28;20441;-49
2022/05/07 13:24:00;;;;;;;3.50;2.17;;;30.20;27.00;;;;;;5070379;28;20199;-50
2022/05/07 13:26:26;;;;;;;2.33;2.07;;;30.30;27.30;;;;;;5070541;28;20569;-50
2022/05/07 13:28:52;;;;;;;2.07;1.87;;;30.50;28.20;;;;;;5072178;28;20242;-50
2022/05/07 13:31:17;;;;;;;2.43;2.23;;;30.40;26.80;;;;;;5058730;28;20188;-50
2022/05/07 13:33:43;;;;;;;2.60;2.40;;;30.20;27.50;;;;;;5070795;28;20227;-50
2022/05/07 13:36:08;;;;;;;4.90;2.67;;;30.30;28.30;;;;;;5070281;28;20192;-49